sensor_id;sensor_type;location;lat;lon;timestamp;pressure;altitude;pressure_sealevel;temperature;humidity
23616;BME280;11985;49.404;7.734;2023-07-13T00:00:44;97332.22;;;14.57;87.67
23616;BME280;11985;49.404;7.734;2023-07-13T00:05:45;97333.41;;;14.43;88.23
23616;BME280;11985;49.404;7.734;2023-07-13T00:10:51;97340.28;;;14.20;89.22
23616;BME280;11985;49.404;7.734;2023-07-13T00:15:55;97343.22;;;14.00;90.20
23616;BME280;11985;49.404;7.734;2023-07-13T00:20:56;97353.56;;;13.90;90.84
23616;BME280;11985;49.404;7.734;2023-07-13T00:26:08;97353.28;;;13.80;91.86
23616;BME280;11985;49.404;7.734;2023-07-13T00:31:11;97348.88;;;13.74;93.16
23616;BME280;11985;49.404;7.734;2023-07-13T00:36:14;97361.81;;;13.64;94.63
23616;BME280;11985;49.404;7.734;2023-07-13T00:41:17;97358.09;;;13.53;95.78
23616;BME280;11985;49.404;7.734;2023-07-13T00:46:25;97362.50;;;13.41;96.64
23616;BME280;11985;49.404;7.734;2023-07-13T00:51:31;97362.22;;;13.31;97.67
23616;BME280;11985;49.404;7.734;2023-07-13T00:56:37;97375.94;;;13.21;98.14
23616;BME280;11985;49.404;7.734;2023-07-13T01:01:39;97373.34;;;13.14;98.94
23616;BME280;11985;49.404;7.734;2023-07-13T01:06:41;97364.44;;;13.09;99.67
23616;BME280;11985;49.404;7.734;2023-07-13T01:11:45;97365.09;;;13.04;100.00
23616;BME280;11985;49.404;7.734;2023-07-13T01:16:50;97363.78;;;12.95;100.00
23616;BME280;11985;49.404;7.734;2023-07-13T01:21:53;97365.66;;;12.88;100.00
23616;BME280;11985;49.404;7.734;2023-07-13T01:26:55;97367.41;;;12.76;100.00
23616;BME280;11985;49.404;7.734;2023-07-13T01:31:56;97361.22;;;12.63;100.00
23616;BME280;11985;49.404;7.734;2023-07-13T01:36:59;97369.03;;;12.52;100.00
23616;BME280;11985;49.404;7.734;2023-07-13T01:42:01;97366.44;;;12.45;100.00
23616;BME280;11985;49.404;7.734;2023-07-13T01:47:03;97363.00;;;12.45;100.00
23616;BME280;11985;49.404;7.734;2023-07-13T01:52:07;97356.75;;;12.39;100.00
23616;BME280;11985;49.404;7.734;2023-07-13T01:57:09;97372.19;;;12.35;100.00
23616;BME280;11985;49.404;7.734;2023-07-13T02:02:10;97365.66;;;12.38;100.00
23616;BME280;11985;49.404;7.734;2023-07-13T02:07:13;97361.16;;;12.45;100.00
23616;BME280;11985;49.404;7.734;2023-07-13T02:12:15;97359.84;;;12.54;100.00
23616;BME280;11985;49.404;7.734;2023-07-13T02:17:17;97370.59;;;12.59;100.00
23616;BME280;11985;49.404;7.734;2023-07-13T02:22:20;97367.94;;;12.59;100.00
23616;BME280;11985;49.404;7.734;2023-07-13T02:27:22;97357.19;;;12.61;100.00
23616;BME280;11985;49.404;7.734;2023-07-13T02:32:23;97368.72;;;12.66;100.00
23616;BME280;11985;49.404;7.734;2023-07-13T02:37:27;97364.25;;;12.67;100.00
23616;BME280;11985;49.404;7.734;2023-07-13T02:42:29;97369.88;;;12.71;100.00
23616;BME280;11985;49.404;7.734;2023-07-13T02:47:31;97373.13;;;12.73;100.00
23616;BME280;11985;49.404;7.734;2023-07-13T02:52:35;97359.22;;;12.84;100.00
23616;BME280;11985;49.404;7.734;2023-07-13T02:57:36;97362.44;;;12.86;100.00
23616;BME280;11985;49.404;7.734;2023-07-13T03:02:38;97361.41;;;12.87;100.00
23616;BME280;11985;49.404;7.734;2023-07-13T03:07:41;97360.09;;;12.78;100.00
23616;BME280;11985;49.404;7.734;2023-07-13T03:12:44;97362.13;;;12.76;100.00
23616;BME280;11985;49.404;7.734;2023-07-13T03:17:45;97364.56;;;12.77;100.00
23616;BME280;11985;49.404;7.734;2023-07-13T03:22:49;97375.06;;;12.84;100.00
23616;BME280;11985;49.404;7.734;2023-07-13T03:27:51;97374.63;;;12.87;100.00
23616;BME280;11985;49.404;7.734;2023-07-13T03:32:52;97375.66;;;12.86;100.00
23616;BME280;11985;49.404;7.734;2023-07-13T03:37:55;97379.50;;;12.90;100.00
23616;BME280;11985;49.404;7.734;2023-07-13T03:42:59;97384.78;;;12.90;100.00
23616;BME280;11985;49.404;7.734;2023-07-13T03:48:03;97394.91;;;12.93;100.00
23616;BME280;11985;49.404;7.734;2023-07-13T03:53:06;97388.44;;;12.89;100.00
23616;BME280;11985;49.404;7.734;2023-07-13T03:58:29;97396.81;;;13.04;100.00
23616;BME280;11985;49.404;7.734;2023-07-13T04:03:32;97396.97;;;13.34;100.00
23616;BME280;11985;49.404;7.734;2023-07-13T04:08:36;97392.03;;;13.38;100.00
23616;BME280;11985;49.404;7.734;2023-07-13T04:13:38;97390.00;;;13.22;100.00
23616;BME280;11985;49.404;7.734;2023-07-13T04:18:39;97394.19;;;13.04;100.00
23616;BME280;11985;49.404;7.734;2023-07-13T04:23:42;97396.97;;;12.91;100.00
23616;BME280;11985;49.404;7.734;2023-07-13T04:28:44;97403.13;;;12.85;100.00
23616;BME280;11985;49.404;7.734;2023-07-13T04:33:46;97411.91;;;12.79;100.00
23616;BME280;11985;49.404;7.734;2023-07-13T04:38:49;97408.53;;;12.72;100.00
23616;BME280;11985;49.404;7.734;2023-07-13T04:43:51;97405.88;;;12.72;100.00
23616;BME280;11985;49.404;7.734;2023-07-13T04:48:52;97404.84;;;12.73;100.00
23616;BME280;11985;49.404;7.734;2023-07-13T04:53:55;97419.03;;;12.78;100.00
23616;BME280;11985;49.404;7.734;2023-07-13T04:58:57;97430.22;;;12.99;100.00
23616;BME280;11985;49.404;7.734;2023-07-13T05:03:59;97423.78;;;13.38;100.00
23616;BME280;11985;49.404;7.734;2023-07-13T05:09:02;97433.97;;;13.78;100.00
23616;BME280;11985;49.404;7.734;2023-07-13T05:14:04;97437.56;;;14.13;100.00
23616;BME280;11985;49.404;7.734;2023-07-13T05:19:06;97449.00;;;14.44;100.00
23616;BME280;11985;49.404;7.734;2023-07-13T05:24:08;97431.00;;;14.76;100.00
23616;BME280;11985;49.404;7.734;2023-07-13T05:29:11;97437.84;;;15.07;100.00
23616;BME280;11985;49.404;7.734;2023-07-13T05:34:13;97440.97;;;15.39;100.00
23616;BME280;11985;49.404;7.734;2023-07-13T05:39:16;97445.22;;;15.75;100.00
23616;BME280;11985;49.404;7.734;2023-07-13T05:44:18;97435.88;;;16.13;100.00
23616;BME280;11985;49.404;7.734;2023-07-13T05:49:21;97458.97;;;16.41;100.00
23616;BME280;11985;49.404;7.734;2023-07-13T05:54:24;97460.47;;;16.77;100.00
23616;BME280;11985;49.404;7.734;2023-07-13T05:59:25;97459.91;;;17.09;100.00
23616;BME280;11985;49.404;7.734;2023-07-13T06:04:27;97464.22;;;17.49;100.00
23616;BME280;11985;49.404;7.734;2023-07-13T06:09:30;97469.41;;;17.94;100.00
23616;BME280;11985;49.404;7.734;2023-07-13T06:14:32;97473.28;;;18.30;97.35
23616;BME280;11985;49.404;7.734;2023-07-13T06:19:34;97482.22;;;18.68;92.89
23616;BME280;11985;49.404;7.734;2023-07-13T06:24:37;97492.00;;;18.84;88.66
23616;BME280;11985;49.404;7.734;2023-07-13T06:29:38;97491.38;;;19.41;85.27
23616;BME280;11985;49.404;7.734;2023-07-13T06:34:41;97485.25;;;19.78;81.03
23616;BME280;11985;49.404;7.734;2023-07-13T06:39:44;97492.13;;;19.69;76.28
23616;BME280;11985;49.404;7.734;2023-07-13T06:44:45;97497.16;;;19.60;74.70
23616;BME280;11985;49.404;7.734;2023-07-13T06:49:47;97505.88;;;19.50;73.94
23616;BME280;11985;49.404;7.734;2023-07-13T06:54:50;97512.22;;;19.82;70.71
23616;BME280;11985;49.404;7.734;2023-07-13T06:59:52;97502.59;;;19.38;68.87
23616;BME280;11985;49.404;7.734;2023-07-13T07:04:53;97517.66;;;19.17;68.04
23616;BME280;11985;49.404;7.734;2023-07-13T07:09:56;97511.22;;;19.50;66.20
23616;BME280;11985;49.404;7.734;2023-07-13T07:14:58;97520.47;;;19.75;64.28
23616;BME280;11985;49.404;7.734;2023-07-13T07:20:00;97533.97;;;19.95;62.31
23616;BME280;11985;49.404;7.734;2023-07-13T07:25:04;97528.81;;;19.46;61.21
23616;BME280;11985;49.404;7.734;2023-07-13T07:30:06;97527.78;;;19.52;60.97
23616;BME280;11985;49.404;7.734;2023-07-13T07:35:08;97529.41;;;19.91;59.85
23616;BME280;11985;49.404;7.734;2023-07-13T07:40:12;97525.59;;;20.34;59.55
23616;BME280;11985;49.404;7.734;2023-07-13T07:45:13;97532.16;;;19.64;58.79
23616;BME280;11985;49.404;7.734;2023-07-13T07:50:15;97534.94;;;19.79;58.90
23616;BME280;11985;49.404;7.734;2023-07-13T07:55:18;97534.00;;;20.00;59.35
23616;BME280;11985;49.404;7.734;2023-07-13T08:00:20;97537.88;;;19.77;59.07
23616;BME280;11985;49.404;7.734;2023-07-13T08:05:22;97527.66;;;20.17;59.29
23616;BME280;11985;49.404;7.734;2023-07-13T08:10:25;97528.25;;;20.29;58.85
23616;BME280;11985;49.404;7.734;2023-07-13T08:15:27;97538.31;;;20.07;58.75
23616;BME280;11985;49.404;7.734;2023-07-13T08:20:29;97530.56;;;19.63;58.80
23616;BME280;11985;49.404;7.734;2023-07-13T08:25:32;97521.69;;;19.94;59.15
23616;BME280;11985;49.404;7.734;2023-07-13T08:30:34;97528.81;;;20.41;59.30
23616;BME280;11985;49.404;7.734;2023-07-13T08:35:36;97523.56;;;20.56;59.15
23616;BME280;11985;49.404;7.734;2023-07-13T08:40:40;97519.34;;;21.01;58.32
23616;BME280;11985;49.404;7.734;2023-07-13T08:45:44;97527.34;;;20.66;57.53
23616;BME280;11985;49.404;7.734;2023-07-13T08:50:48;97529.63;;;20.42;57.43
23616;BME280;11985;49.404;7.734;2023-07-13T08:55:59;97523.41;;;20.26;57.93
23616;BME280;11985;49.404;7.734;2023-07-13T09:01:08;97534.16;;;20.36;58.15
23616;BME280;11985;49.404;7.734;2023-07-13T09:06:14;97527.97;;;20.25;58.14
23616;BME280;11985;49.404;7.734;2023-07-13T09:11:34;97527.63;;;20.12;58.04
23616;BME280;11985;49.404;7.734;2023-07-13T09:16:37;97513.44;;;20.79;58.09
23616;BME280;11985;49.404;7.734;2023-07-13T09:21:42;97518.59;;;21.42;57.70
23616;BME280;11985;49.404;7.734;2023-07-13T09:26:47;97518.75;;;21.96;56.47
23616;BME280;11985;49.404;7.734;2023-07-13T09:31:53;97516.69;;;21.78;54.87
23616;BME280;11985;49.404;7.734;2023-07-13T09:36:55;97522.63;;;21.49;54.33
23616;BME280;11985;49.404;7.734;2023-07-13T09:42:01;97528.47;;;21.11;53.21
23616;BME280;11985;49.404;7.734;2023-07-13T09:47:16;97528.97;;;20.82;53.55
23616;BME280;11985;49.404;7.734;2023-07-13T09:52:18;97535.94;;;20.78;52.39
23616;BME280;11985;49.404;7.734;2023-07-13T09:57:23;97533.06;;;21.30;52.00
23616;BME280;11985;49.404;7.734;2023-07-13T10:02:28;97533.34;;;21.44;51.59
23616;BME280;11985;49.404;7.734;2023-07-13T10:07:30;97539.63;;;22.09;50.84
23616;BME280;11985;49.404;7.734;2023-07-13T10:12:36;97533.75;;;22.18;50.21
23616;BME280;11985;49.404;7.734;2023-07-13T10:17:39;97529.44;;;22.27;49.78
23616;BME280;11985;49.404;7.734;2023-07-13T10:22:45;97536.81;;;22.55;49.13
23616;BME280;11985;49.404;7.734;2023-07-13T10:27:58;97530.69;;;22.45;48.66
23616;BME280;11985;49.404;7.734;2023-07-13T10:33:04;97531.47;;;22.55;48.73
23616;BME280;11985;49.404;7.734;2023-07-13T10:38:13;97537.81;;;23.14;48.06
23616;BME280;11985;49.404;7.734;2023-07-13T10:43:20;97536.06;;;23.67;47.06
23616;BME280;11985;49.404;7.734;2023-07-13T10:48:23;97531.38;;;23.49;46.11
23616;BME280;11985;49.404;7.734;2023-07-13T10:53:28;97541.53;;;22.19;46.14
23616;BME280;11985;49.404;7.734;2023-07-13T10:58:34;97542.69;;;21.37;46.60
23616;BME280;11985;49.404;7.734;2023-07-13T11:03:37;97546.69;;;21.08;48.03
23616;BME280;11985;49.404;7.734;2023-07-13T11:08:52;97543.44;;;20.86;48.49
23616;BME280;11985;49.404;7.734;2023-07-13T11:14:00;97539.94;;;20.86;49.34
23616;BME280;11985;49.404;7.734;2023-07-13T11:24:56;97535.22;;;21.44;48.64
23616;BME280;11985;49.404;7.734;2023-07-13T11:30:18;97543.50;;;21.32;48.80
23616;BME280;11985;49.404;7.734;2023-07-13T11:35:23;97540.81;;;21.42;48.34
23616;BME280;11985;49.404;7.734;2023-07-13T11:40:26;97537.56;;;21.71;47.87
23616;BME280;11985;49.404;7.734;2023-07-13T11:45:31;97537.63;;;21.45;48.09
23616;BME280;11985;49.404;7.734;2023-07-13T11:50:33;97536.81;;;21.40;48.16
23616;BME280;11985;49.404;7.734;2023-07-13T11:55:37;97545.38;;;21.42;48.38
23616;BME280;11985;49.404;7.734;2023-07-13T12:00:40;97545.91;;;21.59;48.17
23616;BME280;11985;49.404;7.734;2023-07-13T12:05:55;97542.41;;;21.79;48.45
23616;BME280;11985;49.404;7.734;2023-07-13T12:11:04;97540.19;;;22.06;48.03
23616;BME280;11985;49.404;7.734;2023-07-13T12:16:16;97536.94;;;22.20;47.77
23616;BME280;11985;49.404;7.734;2023-07-13T12:21:19;97534.56;;;22.13;47.22
23616;BME280;11985;49.404;7.734;2023-07-13T12:26:21;97543.69;;;22.07;47.19
23616;BME280;11985;49.404;7.734;2023-07-13T12:31:29;97541.34;;;21.65;47.13
23616;BME280;11985;49.404;7.734;2023-07-13T12:36:34;97545.66;;;21.50;47.75
23616;BME280;11985;49.404;7.734;2023-07-13T12:41:36;97540.28;;;21.55;47.55
23616;BME280;11985;49.404;7.734;2023-07-13T12:46:39;97547.16;;;22.18;47.92
23616;BME280;11985;49.404;7.734;2023-07-13T12:51:41;97555.72;;;22.09;47.62
23616;BME280;11985;49.404;7.734;2023-07-13T12:56:43;97561.41;;;21.87;47.45
23616;BME280;11985;49.404;7.734;2023-07-13T13:01:47;97552.53;;;22.18;47.05
23616;BME280;11985;49.404;7.734;2023-07-13T13:07:00;97543.28;;;22.54;46.52
23616;BME280;11985;49.404;7.734;2023-07-13T13:12:02;97551.41;;;23.33;45.63
23616;BME280;11985;49.404;7.734;2023-07-13T13:17:18;97547.69;;;22.79;44.70
23616;BME280;11985;49.404;7.734;2023-07-13T13:22:20;97549.81;;;22.33;44.89
23616;BME280;11985;49.404;7.734;2023-07-13T13:27:23;97552.81;;;22.11;44.51
23616;BME280;11985;49.404;7.734;2023-07-13T13:32:26;97553.91;;;21.95;44.99
23616;BME280;11985;49.404;7.734;2023-07-13T13:37:27;97552.31;;;22.69;44.98
23616;BME280;11985;49.404;7.734;2023-07-13T13:42:29;97544.63;;;23.01;44.31
23616;BME280;11985;49.404;7.734;2023-07-13T13:47:32;97545.63;;;23.15;43.77
23616;BME280;11985;49.404;7.734;2023-07-13T13:52:36;97539.63;;;23.24;44.04
23616;BME280;11985;49.404;7.734;2023-07-13T13:57:37;97543.03;;;23.00;43.89
23616;BME280;11985;49.404;7.734;2023-07-13T14:02:41;97552.16;;;23.04;42.99
23616;BME280;11985;49.404;7.734;2023-07-13T14:07:43;97546.91;;;22.74;42.65
23616;BME280;11985;49.404;7.734;2023-07-13T14:12:48;97548.69;;;22.44;42.84
23616;BME280;11985;49.404;7.734;2023-07-13T14:17:53;97555.03;;;22.63;43.47
23616;BME280;11985;49.404;7.734;2023-07-13T14:22:54;97560.84;;;22.81;43.60
23616;BME280;11985;49.404;7.734;2023-07-13T14:27:58;97558.88;;;23.02;43.45
23616;BME280;11985;49.404;7.734;2023-07-13T14:33:07;97555.22;;;22.82;43.51
23616;BME280;11985;49.404;7.734;2023-07-13T14:38:12;97550.03;;;22.96;43.56
23616;BME280;11985;49.404;7.734;2023-07-13T14:43:15;97543.78;;;24.03;43.32
23616;BME280;11985;49.404;7.734;2023-07-13T14:48:21;97550.09;;;24.65;42.33
23616;BME280;11985;49.404;7.734;2023-07-13T14:53:25;97546.97;;;24.53;40.92
23616;BME280;11985;49.404;7.734;2023-07-13T14:58:28;97552.03;;;24.36;40.54
23616;BME280;11985;49.404;7.734;2023-07-13T15:03:31;97537.38;;;24.47;39.64
23616;BME280;11985;49.404;7.734;2023-07-13T15:08:32;97537.47;;;23.89;39.67
23616;BME280;11985;49.404;7.734;2023-07-13T15:13:35;97533.84;;;23.75;40.24
23616;BME280;11985;49.404;7.734;2023-07-13T15:18:39;97525.47;;;23.47;39.72
23616;BME280;11985;49.404;7.734;2023-07-13T15:23:40;97530.84;;;23.47;40.41
23616;BME280;11985;49.404;7.734;2023-07-13T15:28:43;97522.53;;;24.26;40.42
23616;BME280;11985;49.404;7.734;2023-07-13T15:33:46;97529.03;;;24.86;40.15
23616;BME280;11985;49.404;7.734;2023-07-13T15:38:52;97525.84;;;25.22;39.46
23616;BME280;11985;49.404;7.734;2023-07-13T15:43:55;97525.03;;;25.21;38.92
23616;BME280;11985;49.404;7.734;2023-07-13T15:48:59;97523.56;;;25.62;38.65
23616;BME280;11985;49.404;7.734;2023-07-13T15:54:03;97515.56;;;25.70;38.32
23616;BME280;11985;49.404;7.734;2023-07-13T15:59:05;97519.81;;;26.04;37.80
23616;BME280;11985;49.404;7.734;2023-07-13T16:04:08;97524.41;;;25.43;36.89
23616;BME280;11985;49.404;7.734;2023-07-13T16:09:17;97529.91;;;24.63;36.91
23616;BME280;11985;49.404;7.734;2023-07-13T16:14:19;97522.13;;;24.37;37.23
23616;BME280;11985;49.404;7.734;2023-07-13T16:19:26;97518.19;;;24.72;37.33
23616;BME280;11985;49.404;7.734;2023-07-13T16:24:30;97517.44;;;25.23;37.77
23616;BME280;11985;49.404;7.734;2023-07-13T16:29:32;97513.00;;;25.33;37.16
23616;BME280;11985;49.404;7.734;2023-07-13T16:34:37;97513.13;;;25.03;37.00
23616;BME280;11985;49.404;7.734;2023-07-13T16:39:43;97508.34;;;25.19;36.94
23616;BME280;11985;49.404;7.734;2023-07-13T16:44:46;97518.56;;;25.55;36.73
23616;BME280;11985;49.404;7.734;2023-07-13T16:49:49;97516.88;;;25.08;36.59
23616;BME280;11985;49.404;7.734;2023-07-13T16:54:51;97520.38;;;24.28;37.13
23616;BME280;11985;49.404;7.734;2023-07-13T16:59:53;97515.47;;;24.30;37.63
23616;BME280;11985;49.404;7.734;2023-07-13T17:04:58;97523.38;;;24.88;38.05
23616;BME280;11985;49.404;7.734;2023-07-13T17:10:01;97520.22;;;25.51;37.65
23616;BME280;11985;49.404;7.734;2023-07-13T17:15:04;97526.00;;;25.12;37.13
23616;BME280;11985;49.404;7.734;2023-07-13T17:20:20;97522.81;;;24.48;37.48
23616;BME280;11985;49.404;7.734;2023-07-13T17:25:26;97521.03;;;24.14;37.78
23616;BME280;11985;49.404;7.734;2023-07-13T17:30:30;97520.66;;;23.78;38.41
23616;BME280;11985;49.404;7.734;2023-07-13T17:35:35;97527.25;;;23.28;39.14
23616;BME280;11985;49.404;7.734;2023-07-13T17:40:37;97538.78;;;22.94;39.75
23616;BME280;11985;49.404;7.734;2023-07-13T17:45:40;97536.63;;;22.86;40.09
23616;BME280;11985;49.404;7.734;2023-07-13T17:50:44;97530.75;;;22.84;40.57
23616;BME280;11985;49.404;7.734;2023-07-13T17:55:49;97526.75;;;22.76;40.80
23616;BME280;11985;49.404;7.734;2023-07-13T18:00:52;97527.72;;;22.46;40.95
23616;BME280;11985;49.404;7.734;2023-07-13T18:05:56;97523.53;;;22.20;41.92
23616;BME280;11985;49.404;7.734;2023-07-13T18:10:59;97525.81;;;21.72;42.03
23616;BME280;11985;49.404;7.734;2023-07-13T18:16:02;97537.06;;;21.58;42.77
23616;BME280;11985;49.404;7.734;2023-07-13T18:21:07;97534.66;;;21.57;43.37
23616;BME280;11985;49.404;7.734;2023-07-13T18:26:09;97532.53;;;21.33;43.88
23616;BME280;11985;49.404;7.734;2023-07-13T18:31:14;97535.69;;;21.15;44.24
23616;BME280;11985;49.404;7.734;2023-07-13T18:36:21;97541.06;;;21.05;44.49
23616;BME280;11985;49.404;7.734;2023-07-13T18:41:23;97533.28;;;20.93;44.95
23616;BME280;11985;49.404;7.734;2023-07-13T18:46:26;97531.66;;;20.87;45.38
23616;BME280;11985;49.404;7.734;2023-07-13T18:51:31;97543.41;;;20.76;45.78
23616;BME280;11985;49.404;7.734;2023-07-13T18:56:33;97544.75;;;20.78;47.92
23616;BME280;11985;49.404;7.734;2023-07-13T19:01:36;97540.72;;;20.71;49.31
23616;BME280;11985;49.404;7.734;2023-07-13T19:06:39;97552.69;;;20.48;50.63
23616;BME280;11985;49.404;7.734;2023-07-13T19:11:41;97563.47;;;20.11;51.32
23616;BME280;11985;49.404;7.734;2023-07-13T19:16:42;97549.91;;;19.80;52.42
23616;BME280;11985;49.404;7.734;2023-07-13T19:21:47;97553.50;;;19.59;53.40
23616;BME280;11985;49.404;7.734;2023-07-13T19:26:50;97564.56;;;19.40;53.87
23616;BME280;11985;49.404;7.734;2023-07-13T19:31:52;97562.31;;;19.27;54.51
23616;BME280;11985;49.404;7.734;2023-07-13T19:36:59;97571.31;;;19.16;55.21
23616;BME280;11985;49.404;7.734;2023-07-13T19:42:04;97577.41;;;19.11;56.12
23616;BME280;11985;49.404;7.734;2023-07-13T19:47:08;97578.59;;;18.98;56.72
23616;BME280;11985;49.404;7.734;2023-07-13T19:52:14;97579.50;;;18.82;57.20
23616;BME280;11985;49.404;7.734;2023-07-13T19:57:17;97586.81;;;18.70;57.72
23616;BME280;11985;49.404;7.734;2023-07-13T20:02:20;97592.00;;;18.60;58.53
23616;BME280;11985;49.404;7.734;2023-07-13T20:07:23;97592.47;;;18.52;59.00
23616;BME280;11985;49.404;7.734;2023-07-13T20:12:26;97591.91;;;18.50;59.49
23616;BME280;11985;49.404;7.734;2023-07-13T20:17:30;97594.81;;;18.48;59.43
23616;BME280;11985;49.404;7.734;2023-07-13T20:22:35;97597.84;;;18.35;60.13
23616;BME280;11985;49.404;7.734;2023-07-13T20:27:36;97600.00;;;18.16;60.72
23616;BME280;11985;49.404;7.734;2023-07-13T20:32:38;97592.84;;;18.00;61.46
23616;BME280;11985;49.404;7.734;2023-07-13T20:37:41;97604.09;;;17.85;62.19
23616;BME280;11985;49.404;7.734;2023-07-13T20:42:46;97605.22;;;17.72;62.85
23616;BME280;11985;49.404;7.734;2023-07-13T20:47:50;97597.53;;;17.59;63.26
23616;BME280;11985;49.404;7.734;2023-07-13T20:52:57;97611.25;;;17.51;63.76
23616;BME280;11985;49.404;7.734;2023-07-13T20:58:00;97617.53;;;17.45;64.02
23616;BME280;11985;49.404;7.734;2023-07-13T21:03:04;97611.06;;;17.40;64.97
23616;BME280;11985;49.404;7.734;2023-07-13T21:08:11;97615.34;;;17.41;65.93
23616;BME280;11985;49.404;7.734;2023-07-13T21:13:13;97621.81;;;17.46;66.82
23616;BME280;11985;49.404;7.734;2023-07-13T21:18:17;97621.25;;;17.44;67.20
23616;BME280;11985;49.404;7.734;2023-07-13T21:23:29;97613.28;;;17.44;68.07
23616;BME280;11985;49.404;7.734;2023-07-13T21:28:34;97625.91;;;17.36;68.41
23616;BME280;11985;49.404;7.734;2023-07-13T21:33:36;97626.06;;;17.30;68.96
23616;BME280;11985;49.404;7.734;2023-07-13T21:38:40;97626.13;;;17.18;69.37
23616;BME280;11985;49.404;7.734;2023-07-13T21:43:43;97632.06;;;17.08;70.10
23616;BME280;11985;49.404;7.734;2023-07-13T21:48:44;97627.59;;;16.97;70.92
23616;BME280;11985;49.404;7.734;2023-07-13T21:53:49;97631.91;;;16.86;71.36
23616;BME280;11985;49.404;7.734;2023-07-13T21:58:51;97631.25;;;16.79;72.12
23616;BME280;11985;49.404;7.734;2023-07-13T22:03:55;97625.69;;;16.69;73.27
23616;BME280;11985;49.404;7.734;2023-07-13T22:08:58;97628.75;;;16.61;73.73
23616;BME280;11985;49.404;7.734;2023-07-13T22:14:00;97622.28;;;16.57;74.20
23616;BME280;11985;49.404;7.734;2023-07-13T22:19:09;97622.63;;;16.49;74.51
23616;BME280;11985;49.404;7.734;2023-07-13T22:24:15;97629.91;;;16.42;75.17
23616;BME280;11985;49.404;7.734;2023-07-13T22:29:19;97632.72;;;16.35;75.96
23616;BME280;11985;49.404;7.734;2023-07-13T22:34:24;97627.53;;;16.28;76.81
23616;BME280;11985;49.404;7.734;2023-07-13T22:39:28;97624.63;;;16.18;77.01
23616;BME280;11985;49.404;7.734;2023-07-13T22:44:32;97620.25;;;16.12;77.67
23616;BME280;11985;49.404;7.734;2023-07-13T22:49:34;97627.56;;;16.05;78.14
23616;BME280;11985;49.404;7.734;2023-07-13T22:54:38;97627.53;;;15.93;78.53
23616;BME280;11985;49.404;7.734;2023-07-13T22:59:41;97628.13;;;15.83;79.46
23616;BME280;11985;49.404;7.734;2023-07-13T23:04:43;97621.53;;;15.74;80.27
23616;BME280;11985;49.404;7.734;2023-07-13T23:09:49;97613.44;;;15.69;80.93
23616;BME280;11985;49.404;7.734;2023-07-13T23:14:51;97601.44;;;15.67;81.69
23616;BME280;11985;49.404;7.734;2023-07-13T23:19:52;97614.19;;;15.58;82.44
23616;BME280;11985;49.404;7.734;2023-07-13T23:24:55;97610.25;;;15.49;83.01
23616;BME280;11985;49.404;7.734;2023-07-13T23:29:57;97599.41;;;15.39;84.30
23616;BME280;11985;49.404;7.734;2023-07-13T23:34:59;97607.34;;;15.27;84.90
23616;BME280;11985;49.404;7.734;2023-07-13T23:40:11;97608.59;;;15.24;85.76
23616;BME280;11985;49.404;7.734;2023-07-13T23:45:15;97602.09;;;15.20;86.50
23616;BME280;11985;49.404;7.734;2023-07-13T23:50:19;97601.16;;;15.15;86.94
23616;BME280;11985;49.404;7.734;2023-07-13T23:55:24;97599.09;;;15.05;87.67
